createdAt,value
2023-01-28T00:03:39.704Z,1024.4
2023-01-28T00:09:10.365Z,1024.3
2023-01-28T00:14:51.053Z,1024.3
2023-01-28T00:20:42.351Z,1024.4
2023-01-28T00:26:17.212Z,1024.2
2023-01-28T00:31:36.407Z,1024.1
2023-01-28T00:37:09.034Z,1024.2
2023-01-28T00:42:40.238Z,1024.3
2023-01-28T00:48:10.747Z,1024.1
2023-01-28T00:54:01.948Z,1024
2023-01-28T00:59:32.880Z,1024.1
2023-01-28T01:04:55.160Z,1024.1
2023-01-28T01:10:43.669Z,1024
2023-01-28T01:16:03.795Z,1024.1
2023-01-28T01:21:30.853Z,1024.2
2023-01-28T01:27:24.950Z,1024.3
2023-01-28T01:32:52.331Z,1024.3
2023-01-28T01:38:13.073Z,1024.3
2023-01-28T01:44:06.494Z,1024.1
2023-01-28T01:49:29.843Z,1024.2
2023-01-28T01:55:02.642Z,1024.2
2023-01-28T02:00:25.830Z,1024.2
2023-01-28T02:06:16.753Z,1024.1
2023-01-28T02:11:55.455Z,1024.1
2023-01-28T02:17:24.322Z,1024.1
2023-01-28T02:22:56.679Z,1024.1
2023-01-28T02:28:14.217Z,1024.2
2023-01-28T02:33:46.603Z,1024.1
2023-01-28T02:39:43.933Z,1024.3
2023-01-28T02:45:18.301Z,1024.4
2023-01-28T02:50:34.029Z,1024.2
2023-01-28T02:56:07.334Z,1024.2
2023-01-28T03:01:45.774Z,1024.2
2023-01-28T03:07:33.659Z,1024.3
2023-01-28T03:13:00.444Z,1024.1
2023-01-28T03:18:29.148Z,1024.1
2023-01-28T03:24:03.403Z,1024.1
2023-01-28T03:29:29.221Z,1024.2
2023-01-28T03:35:20.105Z,1024.2
2023-01-28T03:40:41.808Z,1024.3
2023-01-28T03:46:13.084Z,1024.2
2023-01-28T03:51:55.908Z,1024.3
2023-01-28T03:57:24.989Z,1024.3
2023-01-28T04:02:57.759Z,1024.4
2023-01-28T04:08:31.333Z,1024.5
2023-01-28T04:14:06.252Z,1024.4
2023-01-28T04:19:41.663Z,1024.5
2023-01-28T04:25:18.011Z,1024.4
2023-01-28T04:30:55.489Z,1024.4
2023-01-28T04:36:36.629Z,1024.5
2023-01-28T04:41:52.784Z,1024.5
2023-01-28T04:47:26.601Z,1024.5
2023-01-28T04:53:01.057Z,1024.4
2023-01-28T04:58:35.477Z,1024.4
2023-01-28T05:04:35.083Z,1024.4
2023-01-28T05:09:51.370Z,1024.5
2023-01-28T05:15:17.776Z,1024.5
2023-01-28T05:20:55.439Z,1024.6
2023-01-28T05:26:24.299Z,1024.7
2023-01-28T05:32:18.801Z,1024.6
2023-01-28T05:37:35.147Z,1024.6
2023-01-28T05:43:31.281Z,1024.7
2023-01-28T05:48:52.418Z,1024.8
2023-01-28T05:54:37.189Z,1024.7
2023-01-28T05:59:54.159Z,1024.7
2023-01-28T06:05:24.463Z,1024.9
2023-01-28T06:10:56.364Z,1025
2023-01-28T06:16:48.945Z,1025
2023-01-28T06:27:53.077Z,1025.2
2023-01-28T06:33:20.754Z,1025.3
2023-01-28T06:38:54.945Z,1025.3
2023-01-28T06:44:27.050Z,1025.3
2023-01-28T06:49:59.519Z,1025.4
2023-01-28T06:55:37.900Z,1025.4
2023-01-28T07:01:02.151Z,1025.5
2023-01-28T07:06:36.841Z,1025.5
2023-01-28T07:12:22.408Z,1025.5
2023-01-28T07:18:02.127Z,1025.5
2023-01-28T07:23:32.490Z,1025.5
2023-01-28T07:28:49.814Z,1025.5
2023-01-28T07:34:26.486Z,1025.6
2023-01-28T07:40:15.458Z,1025.6
2023-01-28T07:45:48.770Z,1025.6
2023-01-28T07:51:13.252Z,1025.6
2023-01-28T07:57:03.912Z,1025.6
2023-01-28T08:02:33.378Z,1025.7
2023-01-28T08:08:05.696Z,1025.9
2023-01-28T08:13:32.708Z,1025.9
2023-01-28T08:19:14.510Z,1025.9
2023-01-28T08:24:53.120Z,1025.9
2023-01-28T08:30:16.381Z,1026.1
2023-01-28T08:35:44.886Z,1026.1
2023-01-28T08:41:20.228Z,1026.1
2023-01-28T08:46:57.975Z,1026.1
2023-01-28T08:52:28.232Z,1026.2
2023-01-28T08:58:18.248Z,1026.1
2023-01-28T09:03:28.721Z,1026.1
2023-01-28T09:08:57.726Z,1026.3
2023-01-28T09:14:37.293Z,1026.3
2023-01-28T09:20:06.622Z,1026.4
2023-01-28T09:25:40.047Z,1026.4
2023-01-28T09:31:29.591Z,1026.3
2023-01-28T09:36:51.635Z,1026.4
2023-01-28T09:42:44.283Z,1026.4
2023-01-28T09:48:19.611Z,1026.5
2023-01-28T09:53:40.070Z,1026.5
2023-01-28T09:59:09.222Z,1026.5
2023-01-28T10:04:54.143Z,1026.4
2023-01-28T10:10:32.137Z,1026.6
2023-01-28T10:16:11.516Z,1026.6
2023-01-28T10:21:36.378Z,1026.5
2023-01-28T10:26:58.901Z,1026.5
2023-01-28T10:32:33.819Z,1026.5
2023-01-28T10:38:27.613Z,1026.5
2023-01-28T10:44:00.331Z,1026.4
2023-01-28T10:49:40.777Z,1026.3
2023-01-28T10:55:01.789Z,1026.5
2023-01-28T11:00:38.913Z,1026.5
2023-01-28T11:05:56.621Z,1026.4
2023-01-28T11:11:36.445Z,1026.5
2023-01-28T11:17:03.067Z,1026.4
2023-01-28T11:22:38.614Z,1026.4
2023-01-28T11:28:16.353Z,1026.3
2023-01-28T11:33:58.017Z,1026.3
2023-01-28T11:39:46.065Z,1026.2
2023-01-28T11:45:18.941Z,1026.3
2023-01-28T11:50:38.504Z,1026.4
2023-01-28T11:56:05.572Z,1026.3
2023-01-28T12:01:57.331Z,1026.5
2023-01-28T12:07:28.679Z,1026.4
2023-01-28T12:13:00.039Z,1026.5
2023-01-28T12:18:40.269Z,1026.4
2023-01-28T12:24:04.231Z,1026.4
2023-01-28T12:29:28.241Z,1026.4
2023-01-28T12:35:05.219Z,1026.2
2023-01-28T12:40:40.572Z,1026.2
2023-01-28T12:46:20.150Z,1026.2
2023-01-28T12:51:57.658Z,1026.2
2023-01-28T12:57:17.891Z,1026.2
2023-01-28T13:02:56.771Z,1026.3
2023-01-28T13:08:46.518Z,1026.3
2023-01-28T13:14:15.375Z,1026.2
2023-01-28T13:19:43.020Z,1026.2
2023-01-28T13:25:18.580Z,1026.3
2023-01-28T13:30:48.807Z,1026.4
2023-01-28T13:36:26.485Z,1026.4
2023-01-28T13:42:10.400Z,1026.4
2023-01-28T13:47:42.279Z,1026.5
2023-01-28T13:52:57.774Z,1026.6
2023-01-28T13:58:45.740Z,1026.7
2023-01-28T14:04:20.693Z,1026.8
2023-01-28T14:09:45.210Z,1026.8
2023-01-28T14:15:31.821Z,1026.8
2023-01-28T14:20:50.135Z,1026.9
2023-01-28T14:26:42.112Z,1027
2023-01-28T14:32:10.847Z,1026.9
2023-01-28T14:37:52.870Z,1027.1
2023-01-28T14:43:17.883Z,1027.1
2023-01-28T14:48:48.885Z,1027.1
2023-01-28T14:54:29.727Z,1027.1
2023-01-28T15:00:03.215Z,1027.3
2023-01-28T15:05:37.021Z,1027.1
2023-01-28T15:10:56.121Z,1027.2
2023-01-28T15:16:43.736Z,1027.3
2023-01-28T15:22:10.787Z,1027.3
2023-01-28T15:27:35.291Z,1027.4
2023-01-28T15:33:13.415Z,1027.3
2023-01-28T15:39:04.096Z,1027.5
2023-01-28T15:44:26.011Z,1027.5
2023-01-28T15:50:12.167Z,1027.6
2023-01-28T15:55:42.470Z,1027.7
2023-01-28T16:01:21.206Z,1027.7
2023-01-28T16:06:39.809Z,1027.8
2023-01-28T16:12:30.580Z,1027.9
2023-01-28T16:18:06.485Z,1028
2023-01-28T16:23:15.565Z,1028.1
2023-01-28T16:28:49.125Z,1028.2
2023-01-28T16:34:49.451Z,1028.2
2023-01-28T16:40:03.584Z,1028.4
2023-01-28T16:45:49.605Z,1028.3
2023-01-28T16:51:20.464Z,1028.3
2023-01-28T16:56:48.019Z,1028.3
2023-01-28T17:02:11.463Z,1028.3
2023-01-28T17:07:44.711Z,1028.4
2023-01-28T17:13:35.180Z,1028.6
2023-01-28T17:18:52.326Z,1028.5
2023-01-28T17:24:29.877Z,1028.7
2023-01-28T17:30:12.177Z,1028.6
2023-01-28T17:35:35.433Z,1028.8
2023-01-28T17:41:16.310Z,1028.8
2023-01-28T17:46:42.362Z,1028.8
2023-01-28T17:52:35.484Z,1028.8
2023-01-28T17:58:07.133Z,1028.8
2023-01-28T18:03:49.943Z,1028.7
2023-01-28T18:09:01.316Z,1028.8
2023-01-28T18:14:44.781Z,1029
2023-01-28T18:20:08.004Z,1029
2023-01-28T18:25:57.074Z,1029.1
2023-01-28T18:31:15.858Z,1029.1
2023-01-28T18:37:12.260Z,1029.2
2023-01-28T18:42:39.371Z,1029.2
2023-01-28T18:48:02.751Z,1029.3
2023-01-28T18:53:34.241Z,1029.4
2023-01-28T18:59:22.074Z,1029.3
2023-01-28T19:04:43.818Z,1029.2
2023-01-28T19:10:29.075Z,1029.2
2023-01-28T19:15:45.092Z,1029.2
2023-01-28T19:21:20.127Z,1029.2
2023-01-28T19:26:59.228Z,1029.4
2023-01-28T19:32:30.198Z,1029.3
2023-01-28T19:38:17.816Z,1029.1
2023-01-28T19:43:57.760Z,1029.2
2023-01-28T19:49:07.992Z,1029.1
2023-01-28T19:55:06.799Z,1029.2
2023-01-28T20:00:30.757Z,1029.3
2023-01-28T20:06:10.224Z,1029.3
2023-01-28T20:11:22.830Z,1029.4
2023-01-28T20:17:15.133Z,1029.4
2023-01-28T20:22:40.630Z,1029.4
2023-01-28T20:28:11.289Z,1029.4
2023-01-28T20:33:50.963Z,1029.4
2023-01-28T20:39:15.392Z,1029.4
2023-01-28T20:44:46.987Z,1029.5
2023-01-28T20:50:20.133Z,1029.5
2023-01-28T20:55:59.380Z,1029.4
2023-01-28T21:01:25.893Z,1029.4
2023-01-28T21:07:12.248Z,1029.4
2023-01-28T21:12:42.125Z,1029.5
2023-01-28T21:18:27.811Z,1029.5
2023-01-28T21:23:49.650Z,1029.6
2023-01-28T21:29:27.694Z,1029.6
2023-01-28T21:35:06.243Z,1029.6
2023-01-28T21:40:38.415Z,1029.6
2023-01-28T21:46:03.353Z,1029.6
2023-01-28T21:51:28.234Z,1029.6
2023-01-28T21:57:19.645Z,1029.6
2023-01-28T22:02:52.602Z,1029.7
2023-01-28T22:08:32.455Z,1029.8
2023-01-28T22:13:45.350Z,1029.8
2023-01-28T22:19:26.239Z,1029.8
2023-01-28T22:25:06.584Z,1029.9
2023-01-28T22:30:43.724Z,1029.8
2023-01-28T22:36:11.649Z,1029.9
2023-01-28T22:41:52.623Z,1029.8
2023-01-28T22:47:04.841Z,1029.8
2023-01-28T22:52:44.755Z,1029.7
2023-01-28T22:58:12.385Z,1029.7
2023-01-28T23:03:50.749Z,1029.6
2023-01-28T23:09:41.734Z,1029.7
2023-01-28T23:14:57.547Z,1029.6
2023-01-28T23:20:34.681Z,1029.6
2023-01-28T23:26:06.195Z,1029.5
2023-01-28T23:31:49.094Z,1029.3
2023-01-28T23:37:11.956Z,1029.4
2023-01-28T23:42:48.538Z,1029.4
2023-01-28T23:48:35.968Z,1029.4
2023-01-28T23:54:01.166Z,1029.3
2023-01-28T23:59:34.962Z,1029.5
